»·PEaware :: N501HY KPMD-KNZY

N501HY :: KPMD-KNZY

FLIGHT INFORMATION

Flight Status: Arrived
Operator: Privately registered:
United States
More flights under this callsign
Pilot: Moussa A. (33317)
Aircraft: SOCATA TBM-900
(TBM9)
More flights by this aircraft type
Origin: KPMD Palmdale AF Plant 42
United States
Destination: KNZY North Island NAS
United States
More flights between these airports :: More routes between these airports
Route: PMD V518 KIMMO V459 SLI V23 MZB
File this flight plan on PilotEdge
Remarks:
Altitude:
(Current/Filed)
15,000ft
Speed:
(Current/Filed)
250kts
Departed: 08-Sep-21 07:56 AM
Arrived: 08-Sep-21 08:53 AM
Distance/Time
Traveled:
124nm/0:56
Distance/Time
To Go:
Arrived

Flight Plot

Page will automatically refresh every two minutes.

Flight plan parsing failed; only flown route is shown


Map Options




Map Legend


Flown Route
Filed Route
Departure Airport
Arrival Airport
Navaid (VOR, NDB)
Fix

Horizontal Profiles

Position Reports

Time Latitude Longitude Heading Altitude Ground
Speed
08-Sep-21 07:11 34.641986 -118.082114 269 2485ft 0kts
08-Sep-21 07:12 34.641986 -118.082114 269 2485ft 0kts
08-Sep-21 07:13 34.641986 -118.082114 269 2485ft 0kts
08-Sep-21 07:14 34.641986 -118.082114 269 2485ft 0kts
08-Sep-21 07:15 34.641986 -118.082114 269 2485ft 0kts
08-Sep-21 07:16 34.641986 -118.082115 269 2485ft 0kts
08-Sep-21 07:17 34.641986 -118.082115 269 2485ft 0kts
08-Sep-21 07:18 34.641986 -118.082115 269 2485ft 0kts
08-Sep-21 07:19 34.641986 -118.082115 269 2485ft 0kts
08-Sep-21 07:20 34.641986 -118.082115 269 2485ft 0kts
08-Sep-21 07:21 34.641986 -118.082115 269 2485ft 0kts
08-Sep-21 07:22 34.641986 -118.082115 269 2485ft 0kts
08-Sep-21 07:23 34.641986 -118.082115 269 2485ft 0kts
08-Sep-21 07:24 34.641986 -118.082115 269 2485ft 0kts
08-Sep-21 07:25 34.641986 -118.082115 269 2485ft 0kts
08-Sep-21 07:26 34.641986 -118.082115 269 2485ft 0kts
08-Sep-21 07:27 34.641986 -118.082115 269 2485ft 0kts
08-Sep-21 07:28 34.641986 -118.082115 269 2485ft 0kts
08-Sep-21 07:29 34.641986 -118.082115 269 2485ft 0kts
08-Sep-21 07:30 34.641986 -118.082115 269 2485ft 0kts
08-Sep-21 07:31 34.641986 -118.082115 269 2485ft 0kts
08-Sep-21 07:32 34.641986 -118.082115 269 2485ft 0kts
08-Sep-21 07:33 34.641986 -118.082115 269 2485ft 0kts
08-Sep-21 07:34 34.641986 -118.082115 269 2485ft 0kts
08-Sep-21 07:35 34.641986 -118.082115 269 2485ft 0kts
08-Sep-21 07:36 34.641986 -118.082115 269 2485ft 0kts
08-Sep-21 07:37 34.641986 -118.082115 269 2485ft 0kts
08-Sep-21 07:38 34.641986 -118.082115 269 2485ft 0kts
08-Sep-21 07:39 34.641986 -118.082115 269 2485ft 0kts
08-Sep-21 07:40 34.641986 -118.082115 269 2485ft 0kts
08-Sep-21 07:41 34.641986 -118.082115 269 2485ft 0kts
08-Sep-21 07:42 34.641986 -118.082115 269 2485ft 0kts
08-Sep-21 07:43 34.641996 -118.082634 256 2485ft 7kts
08-Sep-21 07:44 34.637634 -118.082971 180 2492ft 25kts
08-Sep-21 07:45 34.635220 -118.080859 86 2498ft 21kts
08-Sep-21 07:46 34.634867 -118.073598 171 2500ft 16kts
08-Sep-21 07:47 34.633535 -118.073455 173 2503ft 0kts
08-Sep-21 07:48 34.633535 -118.073455 173 2503ft 0kts
08-Sep-21 07:49 34.633535 -118.073455 173 2503ft 0kts
08-Sep-21 07:50 34.633535 -118.073455 173 2503ft 0kts
08-Sep-21 07:51 34.633535 -118.073455 173 2503ft 0kts
08-Sep-21 07:52 34.633535 -118.073455 173 2503ft 0kts
08-Sep-21 07:53 34.633535 -118.073455 173 2503ft 0kts
08-Sep-21 07:54 34.633535 -118.073455 173 2503ft 0kts
08-Sep-21 07:55 34.632496 -118.078474 266 2506ft 90kts
08-Sep-21 07:56 34.639970 -118.117955 332 4338ft 137kts
08-Sep-21 07:57 34.675058 -118.125945 355 6791ft 127kts
08-Sep-21 07:58 34.668421 -118.099868 140 9029ft 123kts
08-Sep-21 07:59 34.641014 -118.076816 141 11604ft 120kts
08-Sep-21 08:00 34.609420 -118.102368 223 12951ft 201kts
08-Sep-21 08:01 34.572660 -118.157747 229 14192ft 188kts
08-Sep-21 08:02 34.538926 -118.212156 230 14925ft 223kts
08-Sep-21 08:03 34.499100 -118.276804 229 14982ft 243kts
08-Sep-21 08:04 34.455838 -118.344585 230 14951ft 249kts
08-Sep-21 08:05 34.408453 -118.408677 191 14915ft 244kts
08-Sep-21 08:06 34.346057 -118.379954 152 14928ft 238kts
08-Sep-21 08:07 34.285086 -118.344444 152 14927ft 238kts
08-Sep-21 08:08 34.223102 -118.308446 152 14927ft 238kts
08-Sep-21 08:09 34.161230 -118.272588 152 14926ft 238kts
08-Sep-21 08:10 34.100208 -118.237266 152 14924ft 238kts
08-Sep-21 08:11 34.039231 -118.202027 152 14923ft 238kts
08-Sep-21 08:12 33.978292 -118.166867 152 14923ft 238kts
08-Sep-21 08:13 33.916569 -118.131315 152 14940ft 238kts
08-Sep-21 08:14 33.854955 -118.095885 152 14940ft 238kts
08-Sep-21 08:15 33.793689 -118.060712 152 14943ft 238kts
08-Sep-21 08:16 33.743127 -118.007132 133 14945ft 237kts
08-Sep-21 08:17 33.694141 -117.949001 134 14972ft 236kts
08-Sep-21 08:18 33.645045 -117.891313 134 14968ft 237kts
08-Sep-21 08:19 33.595849 -117.833362 134 14963ft 237kts
08-Sep-21 08:20 33.546934 -117.775830 134 14964ft 237kts
08-Sep-21 08:21 33.497929 -117.718240 134 14968ft 237kts
08-Sep-21 08:22 33.449375 -117.661314 134 14974ft 236kts
08-Sep-21 08:23 33.400909 -117.604610 134 14980ft 236kts
08-Sep-21 08:24 33.351687 -117.547116 134 14963ft 237kts
08-Sep-21 08:25 33.299711 -117.486481 134 13997ft 257kts
08-Sep-21 08:26 33.249175 -117.427636 134 14057ft 240kts
08-Sep-21 08:27 33.186944 -117.394944 158 14053ft 239kts
08-Sep-21 08:28 33.124706 -117.368873 158 14042ft 225kts
08-Sep-21 08:29 33.059029 -117.365063 175 13031ft 238kts
08-Sep-21 08:30 33.002615 -117.324184 143 11513ft 235kts
08-Sep-21 08:31 32.946798 -117.280853 146 9999ft 239kts
08-Sep-21 08:32 32.886066 -117.246572 151 8499ft 242kts
08-Sep-21 08:33 32.824578 -117.211192 151 6977ft 242kts
08-Sep-21 08:34 32.764957 -117.176009 151 5438ft 230kts
08-Sep-21 08:35 32.712133 -117.144412 151 5040ft 180kts
08-Sep-21 08:36 32.680076 -117.108733 120 5058ft 149kts
08-Sep-21 08:37 32.663213 -117.078098 120 5071ft 158kts
08-Sep-21 08:38 32.639035 -117.033582 119 5013ft 155kts
08-Sep-21 08:39 32.616113 -116.990814 120 5022ft 146kts
08-Sep-21 08:40 32.608145 -116.944458 86 5112ft 147kts
08-Sep-21 08:41 32.616009 -116.897751 51 5045ft 140kts
08-Sep-21 08:42 32.640685 -116.911440 242 4889ft 124kts
08-Sep-21 08:43 32.618599 -116.941009 219 4977ft 121kts
08-Sep-21 08:44 32.602169 -116.971738 307 4951ft 126kts
08-Sep-21 08:45 32.618868 -117.008541 300 4746ft 123kts
08-Sep-21 08:46 32.633435 -117.044118 299 4101ft 114kts
08-Sep-21 08:47 32.645949 -117.078893 293 3505ft 114kts
08-Sep-21 08:48 32.658056 -117.113598 296 2588ft 109kts
08-Sep-21 08:49 32.669742 -117.147187 291 1548ft 112kts
08-Sep-21 08:50 32.681806 -117.182031 300 573ft 108kts
08-Sep-21 08:51 32.696040 -117.209361 302 23ft 41kts
08-Sep-21 08:52 32.698342 -117.211839 28 23ft 0kts
08-Sep-21 08:53 32.698342 -117.211839 28 23ft 0kts

Navigation Log

Ident Type
Flight plan parsing failed, navigation log unavailable